TimeMST,TemperatureF,Dew PointF,Humidity,Sea Level PressureIn,VisibilityMPH,Wind Direction,Wind SpeedMPH,Gust SpeedMPH,PrecipitationIn,Events,Conditions,WindDirDegrees,DateUTC
12:53 AM,18.0,5.0,57,30.32,10.0,Calm,Calm,-,N/A,,Clear,0,2013-02-28 07:53:00
1:53 AM,19.0,5.0,54,30.31,10.0,NNE,3.5,-,N/A,,Clear,30,2013-02-28 08:53:00
2:53 AM,18.0,1.0,48,30.30,10.0,SW,6.9,-,N/A,,Clear,230,2013-02-28 09:53:00
3:53 AM,19.9,1.0,44,30.29,10.0,SW,5.8,-,N/A,,Clear,230,2013-02-28 10:53:00
4:53 AM,16.0,1.9,54,30.31,10.0,NNW,5.8,-,N/A,,Clear,330,2013-02-28 11:53:00
5:53 AM,14.0,1.0,56,30.33,10.0,East,4.6,-,N/A,,Clear,100,2013-02-28 12:53:00
6:53 AM,14.0,1.9,59,30.36,10.0,East,5.8,-,N/A,,Clear,80,2013-02-28 13:53:00
7:53 AM,17.1,3.0,54,30.38,10.0,NW,6.9,-,N/A,,Clear,320,2013-02-28 14:53:00
8:53 AM,16.0,7.0,68,30.37,10.0,Calm,Calm,-,N/A,,Clear,0,2013-02-28 15:53:00
9:53 AM,24.1,3.9,42,30.34,10.0,Calm,Calm,-,N/A,,Clear,0,2013-02-28 16:53:00
10:53 AM,28.0,12.0,51,30.31,10.0,SE,5.8,-,N/A,,Clear,130,2013-02-28 17:53:00
11:53 AM,36.0,12.0,37,30.29,10.0,East,9.2,-,N/A,,Clear,100,2013-02-28 18:53:00
12:53 PM,36.0,12.0,37,30.27,10.0,ESE,4.6,-,N/A,,Clear,120,2013-02-28 19:53:00
1:53 PM,37.0,12.9,37,30.25,10.0,South,3.5,-,N/A,,Scattered Clouds,180,2013-02-28 20:53:00
2:53 PM,37.9,12.9,36,30.25,10.0,East,4.6,-,N/A,,Mostly Cloudy,100,2013-02-28 21:53:00
3:53 PM,37.0,15.1,41,30.26,10.0,SSE,3.5,-,N/A,,Overcast,160,2013-02-28 22:53:00
4:53 PM,39.0,14.0,36,30.27,10.0,Calm,Calm,-,N/A,,Mostly Cloudy,0,2013-02-28 23:53:00
5:53 PM,35.1,15.1,44,30.32,10.0,Calm,Calm,-,N/A,,Clear,0,2013-03-01 00:53:00
6:53 PM,35.1,15.1,44,30.34,10.0,Calm,Calm,-,N/A,,Clear,0,2013-03-01 01:53:00
7:53 PM,34.0,15.1,46,30.34,10.0,West,5.8,-,N/A,,Clear,270,2013-03-01 02:53:00
8:53 PM,34.0,15.1,46,30.36,10.0,WNW,13.8,-,N/A,,Clear,300,2013-03-01 03:53:00
9:53 PM,30.9,12.9,47,30.34,10.0,West,6.9,-,N/A,,Clear,270,2013-03-01 04:53:00
10:53 PM,32.0,12.0,44,30.34,10.0,WNW,5.8,-,N/A,,Clear,290,2013-03-01 05:53:00
11:53 PM,25.0,12.0,58,30.33,10.0,East,5.8,-,N/A,,Mostly Cloudy,80,2013-03-01 06:53:00